sensor_id;sensor_type;location;lat;lon;timestamp;P1;durP1;ratioP1;P2;durP2;ratioP2
32535;SDS011;18974;50.838;4.636;2023-04-09T00:00:44;39.85;;;23.88;;
32535;SDS011;18974;50.838;4.636;2023-04-09T00:03:10;41.50;;;24.00;;
32535;SDS011;18974;50.838;4.636;2023-04-09T00:05:39;40.17;;;24.75;;
32535;SDS011;18974;50.838;4.636;2023-04-09T00:08:05;41.53;;;24.90;;
32535;SDS011;18974;50.838;4.636;2023-04-09T00:10:31;39.05;;;24.17;;
32535;SDS011;18974;50.838;4.636;2023-04-09T00:12:58;39.58;;;24.83;;
32535;SDS011;18974;50.838;4.636;2023-04-09T00:15:23;37.60;;;24.00;;
32535;SDS011;18974;50.838;4.636;2023-04-09T00:17:49;40.60;;;24.23;;
32535;SDS011;18974;50.838;4.636;2023-04-09T00:20:16;37.80;;;24.23;;
32535;SDS011;18974;50.838;4.636;2023-04-09T00:22:41;40.88;;;25.92;;
32535;SDS011;18974;50.838;4.636;2023-04-09T00:25:07;41.63;;;26.05;;
32535;SDS011;18974;50.838;4.636;2023-04-09T00:27:33;41.10;;;25.33;;
32535;SDS011;18974;50.838;4.636;2023-04-09T00:29:58;42.30;;;25.15;;
32535;SDS011;18974;50.838;4.636;2023-04-09T00:32:24;43.15;;;25.85;;
32535;SDS011;18974;50.838;4.636;2023-04-09T00:34:50;44.78;;;26.00;;
32535;SDS011;18974;50.838;4.636;2023-04-09T00:37:15;43.70;;;26.27;;
32535;SDS011;18974;50.838;4.636;2023-04-09T00:39:41;38.78;;;23.63;;
32535;SDS011;18974;50.838;4.636;2023-04-09T00:42:06;36.90;;;24.00;;
32535;SDS011;18974;50.838;4.636;2023-04-09T00:44:32;40.40;;;24.60;;
32535;SDS011;18974;50.838;4.636;2023-04-09T00:46:58;34.92;;;23.10;;
32535;SDS011;18974;50.838;4.636;2023-04-09T00:49:25;40.30;;;24.80;;
32535;SDS011;18974;50.838;4.636;2023-04-09T00:51:51;40.83;;;24.92;;
32535;SDS011;18974;50.838;4.636;2023-04-09T00:54:17;46.78;;;27.60;;
32535;SDS011;18974;50.838;4.636;2023-04-09T00:56:43;43.08;;;26.63;;
32535;SDS011;18974;50.838;4.636;2023-04-09T00:59:09;41.22;;;26.42;;
32535;SDS011;18974;50.838;4.636;2023-04-09T01:01:35;41.45;;;25.45;;
32535;SDS011;18974;50.838;4.636;2023-04-09T01:04:00;41.55;;;25.40;;
32535;SDS011;18974;50.838;4.636;2023-04-09T01:06:28;42.42;;;26.35;;
32535;SDS011;18974;50.838;4.636;2023-04-09T01:09:40;43.72;;;24.67;;
32535;SDS011;18974;50.838;4.636;2023-04-09T01:17:33;44.83;;;25.25;;
32535;SDS011;18974;50.838;4.636;2023-04-09T01:28:26;40.50;;;23.38;;
32535;SDS011;18974;50.838;4.636;2023-04-09T01:30:57;37.00;;;23.75;;
32535;SDS011;18974;50.838;4.636;2023-04-09T01:33:26;37.72;;;23.63;;
32535;SDS011;18974;50.838;4.636;2023-04-09T01:35:54;43.97;;;26.83;;
32535;SDS011;18974;50.838;4.636;2023-04-09T01:38:21;48.17;;;26.13;;
32535;SDS011;18974;50.838;4.636;2023-04-09T01:40:48;42.38;;;25.85;;
32535;SDS011;18974;50.838;4.636;2023-04-09T01:43:14;48.97;;;26.38;;
32535;SDS011;18974;50.838;4.636;2023-04-09T01:45:41;44.83;;;25.05;;
32535;SDS011;18974;50.838;4.636;2023-04-09T01:48:09;43.05;;;25.52;;
32535;SDS011;18974;50.838;4.636;2023-04-09T01:50:37;44.47;;;24.60;;
32535;SDS011;18974;50.838;4.636;2023-04-09T01:53:03;42.97;;;24.17;;
32535;SDS011;18974;50.838;4.636;2023-04-09T01:55:29;35.03;;;21.73;;
32535;SDS011;18974;50.838;4.636;2023-04-09T01:57:55;40.55;;;23.48;;
32535;SDS011;18974;50.838;4.636;2023-04-09T02:00:21;42.78;;;25.52;;
32535;SDS011;18974;50.838;4.636;2023-04-09T02:02:53;36.75;;;23.35;;
32535;SDS011;18974;50.838;4.636;2023-04-09T02:05:25;40.72;;;23.63;;
32535;SDS011;18974;50.838;4.636;2023-04-09T02:07:55;44.53;;;26.00;;
32535;SDS011;18974;50.838;4.636;2023-04-09T02:10:25;46.38;;;26.85;;
32535;SDS011;18974;50.838;4.636;2023-04-09T02:12:54;53.47;;;28.30;;
32535;SDS011;18974;50.838;4.636;2023-04-09T02:15:22;49.33;;;26.55;;
32535;SDS011;18974;50.838;4.636;2023-04-09T02:17:49;48.35;;;28.50;;
32535;SDS011;18974;50.838;4.636;2023-04-09T02:20:16;51.88;;;29.17;;
32535;SDS011;18974;50.838;4.636;2023-04-09T02:22:43;51.22;;;28.90;;
32535;SDS011;18974;50.838;4.636;2023-04-09T02:25:09;56.90;;;31.02;;
32535;SDS011;18974;50.838;4.636;2023-04-09T02:27:34;58.17;;;31.17;;
32535;SDS011;18974;50.838;4.636;2023-04-09T02:30:00;54.20;;;29.23;;
32535;SDS011;18974;50.838;4.636;2023-04-09T02:32:26;60.88;;;30.67;;
32535;SDS011;18974;50.838;4.636;2023-04-09T02:34:51;58.60;;;30.73;;
32535;SDS011;18974;50.838;4.636;2023-04-09T02:37:17;53.17;;;29.70;;
32535;SDS011;18974;50.838;4.636;2023-04-09T02:39:42;54.83;;;29.73;;
32535;SDS011;18974;50.838;4.636;2023-04-09T02:42:08;55.65;;;30.95;;
32535;SDS011;18974;50.838;4.636;2023-04-09T02:44:34;59.60;;;33.30;;
32535;SDS011;18974;50.838;4.636;2023-04-09T02:46:59;65.55;;;33.53;;
32535;SDS011;18974;50.838;4.636;2023-04-09T02:49:25;67.07;;;34.25;;
32535;SDS011;18974;50.838;4.636;2023-04-09T02:51:51;62.38;;;32.97;;
32535;SDS011;18974;50.838;4.636;2023-04-09T02:54:16;59.85;;;31.88;;
32535;SDS011;18974;50.838;4.636;2023-04-09T02:56:42;69.65;;;33.90;;
32535;SDS011;18974;50.838;4.636;2023-04-09T02:59:08;67.70;;;34.03;;
32535;SDS011;18974;50.838;4.636;2023-04-09T03:01:33;70.30;;;35.15;;
32535;SDS011;18974;50.838;4.636;2023-04-09T03:03:59;77.35;;;35.72;;
32535;SDS011;18974;50.838;4.636;2023-04-09T03:06:25;71.60;;;36.22;;
32535;SDS011;18974;50.838;4.636;2023-04-09T03:08:51;66.97;;;33.97;;
32535;SDS011;18974;50.838;4.636;2023-04-09T03:11:16;54.47;;;28.33;;
32535;SDS011;18974;50.838;4.636;2023-04-09T03:13:42;52.35;;;27.65;;
32535;SDS011;18974;50.838;4.636;2023-04-09T03:16:08;51.28;;;27.25;;
32535;SDS011;18974;50.838;4.636;2023-04-09T03:18:34;49.13;;;26.30;;
32535;SDS011;18974;50.838;4.636;2023-04-09T03:21:04;46.80;;;26.17;;
32535;SDS011;18974;50.838;4.636;2023-04-09T03:23:30;45.63;;;25.98;;
32535;SDS011;18974;50.838;4.636;2023-04-09T03:26:02;49.00;;;28.23;;
32535;SDS011;18974;50.838;4.636;2023-04-09T03:28:29;49.40;;;27.67;;
32535;SDS011;18974;50.838;4.636;2023-04-09T03:30:55;47.83;;;26.83;;
32535;SDS011;18974;50.838;4.636;2023-04-09T03:33:20;47.30;;;26.65;;
32535;SDS011;18974;50.838;4.636;2023-04-09T03:35:46;46.20;;;25.48;;
32535;SDS011;18974;50.838;4.636;2023-04-09T03:38:11;46.10;;;25.45;;
32535;SDS011;18974;50.838;4.636;2023-04-09T03:40:37;52.97;;;26.70;;
32535;SDS011;18974;50.838;4.636;2023-04-09T03:43:03;47.08;;;26.58;;
32535;SDS011;18974;50.838;4.636;2023-04-09T03:45:28;52.63;;;27.40;;
32535;SDS011;18974;50.838;4.636;2023-04-09T03:47:54;55.50;;;28.77;;
32535;SDS011;18974;50.838;4.636;2023-04-09T03:50:20;72.85;;;33.75;;
32535;SDS011;18974;50.838;4.636;2023-04-09T03:52:46;69.20;;;35.35;;
32535;SDS011;18974;50.838;4.636;2023-04-09T03:55:11;78.18;;;34.78;;
32535;SDS011;18974;50.838;4.636;2023-04-09T03:57:37;61.20;;;31.35;;
32535;SDS011;18974;50.838;4.636;2023-04-09T04:00:03;65.40;;;33.58;;
32535;SDS011;18974;50.838;4.636;2023-04-09T04:02:29;78.68;;;37.08;;
32535;SDS011;18974;50.838;4.636;2023-04-09T04:04:57;85.30;;;41.35;;
32535;SDS011;18974;50.838;4.636;2023-04-09T04:07:23;87.90;;;41.63;;
32535;SDS011;18974;50.838;4.636;2023-04-09T04:09:49;89.80;;;41.25;;
32535;SDS011;18974;50.838;4.636;2023-04-09T04:12:15;68.47;;;34.88;;
32535;SDS011;18974;50.838;4.636;2023-04-09T04:14:41;66.53;;;34.05;;
32535;SDS011;18974;50.838;4.636;2023-04-09T04:17:06;57.70;;;29.17;;
32535;SDS011;18974;50.838;4.636;2023-04-09T04:19:32;60.22;;;30.08;;
32535;SDS011;18974;50.838;4.636;2023-04-09T04:21:58;61.75;;;29.27;;
32535;SDS011;18974;50.838;4.636;2023-04-09T04:24:23;61.95;;;30.33;;
32535;SDS011;18974;50.838;4.636;2023-04-09T04:26:49;55.15;;;28.30;;
32535;SDS011;18974;50.838;4.636;2023-04-09T04:29:15;61.30;;;28.05;;
32535;SDS011;18974;50.838;4.636;2023-04-09T04:31:40;55.80;;;29.85;;
32535;SDS011;18974;50.838;4.636;2023-04-09T04:34:06;97.60;;;25.35;;
32535;SDS011;18974;50.838;4.636;2023-04-09T04:36:31;56.67;;;26.27;;
32535;SDS011;18974;50.838;4.636;2023-04-09T04:38:57;55.63;;;25.98;;
32535;SDS011;18974;50.838;4.636;2023-04-09T04:41:23;48.78;;;25.75;;
32535;SDS011;18974;50.838;4.636;2023-04-09T04:43:48;47.08;;;24.90;;
32535;SDS011;18974;50.838;4.636;2023-04-09T04:46:14;47.13;;;24.80;;
32535;SDS011;18974;50.838;4.636;2023-04-09T04:48:40;49.03;;;25.23;;
32535;SDS011;18974;50.838;4.636;2023-04-09T04:51:05;53.53;;;25.27;;
32535;SDS011;18974;50.838;4.636;2023-04-09T04:53:31;63.42;;;27.58;;
32535;SDS011;18974;50.838;4.636;2023-04-09T04:55:57;57.28;;;29.13;;
32535;SDS011;18974;50.838;4.636;2023-04-09T04:58:23;58.25;;;29.23;;
32535;SDS011;18974;50.838;4.636;2023-04-09T05:00:49;54.00;;;27.63;;
32535;SDS011;18974;50.838;4.636;2023-04-09T05:03:15;53.78;;;26.83;;
32535;SDS011;18974;50.838;4.636;2023-04-09T05:05:40;52.05;;;26.20;;
32535;SDS011;18974;50.838;4.636;2023-04-09T05:08:06;54.33;;;25.58;;
32535;SDS011;18974;50.838;4.636;2023-04-09T05:10:32;54.90;;;28.00;;
32535;SDS011;18974;50.838;4.636;2023-04-09T05:12:57;53.08;;;26.60;;
32535;SDS011;18974;50.838;4.636;2023-04-09T05:15:23;57.20;;;28.75;;
32535;SDS011;18974;50.838;4.636;2023-04-09T05:17:48;60.60;;;28.30;;
32535;SDS011;18974;50.838;4.636;2023-04-09T05:20:14;60.30;;;29.23;;
32535;SDS011;18974;50.838;4.636;2023-04-09T05:22:40;51.35;;;26.98;;
32535;SDS011;18974;50.838;4.636;2023-04-09T05:25:06;50.92;;;25.73;;
32535;SDS011;18974;50.838;4.636;2023-04-09T05:27:32;50.63;;;26.35;;
32535;SDS011;18974;50.838;4.636;2023-04-09T05:29:58;51.90;;;26.48;;
32535;SDS011;18974;50.838;4.636;2023-04-09T05:32:23;47.92;;;24.25;;
32535;SDS011;18974;50.838;4.636;2023-04-09T05:34:49;47.65;;;24.08;;
32535;SDS011;18974;50.838;4.636;2023-04-09T05:37:14;53.05;;;27.33;;
32535;SDS011;18974;50.838;4.636;2023-04-09T05:39:40;53.28;;;25.27;;
32535;SDS011;18974;50.838;4.636;2023-04-09T05:42:06;57.53;;;26.25;;
32535;SDS011;18974;50.838;4.636;2023-04-09T05:44:31;50.95;;;26.92;;
32535;SDS011;18974;50.838;4.636;2023-04-09T05:46:57;52.33;;;27.27;;
32535;SDS011;18974;50.838;4.636;2023-04-09T05:49:23;55.10;;;26.27;;
32535;SDS011;18974;50.838;4.636;2023-04-09T05:51:49;52.42;;;26.35;;
32535;SDS011;18974;50.838;4.636;2023-04-09T05:54:15;55.25;;;28.42;;
32535;SDS011;18974;50.838;4.636;2023-04-09T05:56:41;60.47;;;27.98;;
32535;SDS011;18974;50.838;4.636;2023-04-09T05:59:07;69.35;;;32.67;;
32535;SDS011;18974;50.838;4.636;2023-04-09T06:01:33;55.17;;;29.15;;
32535;SDS011;18974;50.838;4.636;2023-04-09T06:03:58;71.15;;;32.17;;
32535;SDS011;18974;50.838;4.636;2023-04-09T06:06:24;70.47;;;35.55;;
32535;SDS011;18974;50.838;4.636;2023-04-09T06:08:50;71.00;;;33.47;;
32535;SDS011;18974;50.838;4.636;2023-04-09T06:11:15;68.72;;;32.10;;
32535;SDS011;18974;50.838;4.636;2023-04-09T06:13:41;70.68;;;32.42;;
32535;SDS011;18974;50.838;4.636;2023-04-09T06:16:07;68.15;;;32.22;;
32535;SDS011;18974;50.838;4.636;2023-04-09T06:18:33;65.57;;;31.13;;
32535;SDS011;18974;50.838;4.636;2023-04-09T06:21:01;70.82;;;33.22;;
32535;SDS011;18974;50.838;4.636;2023-04-09T06:23:27;60.75;;;31.80;;
32535;SDS011;18974;50.838;4.636;2023-04-09T06:25:53;64.07;;;32.13;;
32535;SDS011;18974;50.838;4.636;2023-04-09T06:28:19;60.78;;;32.00;;
32535;SDS011;18974;50.838;4.636;2023-04-09T06:30:45;65.43;;;31.42;;
32535;SDS011;18974;50.838;4.636;2023-04-09T06:33:11;53.65;;;27.67;;
32535;SDS011;18974;50.838;4.636;2023-04-09T06:35:37;52.63;;;28.52;;
32535;SDS011;18974;50.838;4.636;2023-04-09T06:38:02;49.90;;;27.35;;
32535;SDS011;18974;50.838;4.636;2023-04-09T06:40:28;47.22;;;26.73;;
32535;SDS011;18974;50.838;4.636;2023-04-09T06:42:54;50.20;;;27.95;;
32535;SDS011;18974;50.838;4.636;2023-04-09T06:45:20;47.13;;;25.88;;
32535;SDS011;18974;50.838;4.636;2023-04-09T06:47:46;48.55;;;27.27;;
32535;SDS011;18974;50.838;4.636;2023-04-09T06:50:12;42.60;;;24.80;;
32535;SDS011;18974;50.838;4.636;2023-04-09T06:52:37;47.30;;;26.20;;
32535;SDS011;18974;50.838;4.636;2023-04-09T06:55:03;52.42;;;28.25;;
32535;SDS011;18974;50.838;4.636;2023-04-09T06:57:29;63.95;;;35.75;;
32535;SDS011;18974;50.838;4.636;2023-04-09T06:59:55;73.60;;;37.30;;
32535;SDS011;18974;50.838;4.636;2023-04-09T07:02:21;75.57;;;37.67;;
32535;SDS011;18974;50.838;4.636;2023-04-09T07:04:47;67.20;;;37.50;;
32535;SDS011;18974;50.838;4.636;2023-04-09T07:07:12;68.93;;;37.60;;
32535;SDS011;18974;50.838;4.636;2023-04-09T07:09:38;73.38;;;40.25;;
32535;SDS011;18974;50.838;4.636;2023-04-09T07:12:03;83.75;;;39.88;;
32535;SDS011;18974;50.838;4.636;2023-04-09T07:14:29;78.97;;;41.08;;
32535;SDS011;18974;50.838;4.636;2023-04-09T07:16:55;83.65;;;41.65;;
32535;SDS011;18974;50.838;4.636;2023-04-09T07:19:20;75.25;;;42.65;;
32535;SDS011;18974;50.838;4.636;2023-04-09T07:21:46;76.88;;;41.88;;
32535;SDS011;18974;50.838;4.636;2023-04-09T07:24:11;78.53;;;41.03;;
32535;SDS011;18974;50.838;4.636;2023-04-09T07:26:37;77.40;;;40.95;;
32535;SDS011;18974;50.838;4.636;2023-04-09T07:29:03;76.68;;;41.60;;
32535;SDS011;18974;50.838;4.636;2023-04-09T07:31:29;70.70;;;39.70;;
32535;SDS011;18974;50.838;4.636;2023-04-09T07:33:54;71.45;;;39.22;;
32535;SDS011;18974;50.838;4.636;2023-04-09T07:36:20;73.80;;;38.45;;
32535;SDS011;18974;50.838;4.636;2023-04-09T07:38:46;63.30;;;36.58;;
32535;SDS011;18974;50.838;4.636;2023-04-09T07:41:11;72.40;;;37.88;;
32535;SDS011;18974;50.838;4.636;2023-04-09T07:43:37;67.75;;;38.65;;
32535;SDS011;18974;50.838;4.636;2023-04-09T07:46:03;64.53;;;37.42;;
32535;SDS011;18974;50.838;4.636;2023-04-09T07:48:28;66.80;;;38.47;;
32535;SDS011;18974;50.838;4.636;2023-04-09T07:50:54;68.25;;;37.42;;
32535;SDS011;18974;50.838;4.636;2023-04-09T07:53:19;63.97;;;35.50;;
32535;SDS011;18974;50.838;4.636;2023-04-09T07:55:45;68.30;;;36.85;;
32535;SDS011;18974;50.838;4.636;2023-04-09T07:58:11;68.07;;;38.00;;
32535;SDS011;18974;50.838;4.636;2023-04-09T08:00:36;66.82;;;37.05;;
32535;SDS011;18974;50.838;4.636;2023-04-09T08:03:02;59.40;;;35.20;;
32535;SDS011;18974;50.838;4.636;2023-04-09T08:05:28;65.00;;;36.10;;
32535;SDS011;18974;50.838;4.636;2023-04-09T08:07:54;63.13;;;34.97;;
32535;SDS011;18974;50.838;4.636;2023-04-09T08:10:20;58.75;;;34.72;;
32535;SDS011;18974;50.838;4.636;2023-04-09T08:12:46;62.38;;;33.13;;
32535;SDS011;18974;50.838;4.636;2023-04-09T08:15:12;56.10;;;32.30;;
32535;SDS011;18974;50.838;4.636;2023-04-09T08:17:38;55.17;;;31.55;;
32535;SDS011;18974;50.838;4.636;2023-04-09T08:20:04;56.47;;;30.77;;
32535;SDS011;18974;50.838;4.636;2023-04-09T08:22:30;50.50;;;29.90;;
32535;SDS011;18974;50.838;4.636;2023-04-09T08:24:56;51.80;;;29.27;;
32535;SDS011;18974;50.838;4.636;2023-04-09T08:27:23;51.83;;;29.35;;
32535;SDS011;18974;50.838;4.636;2023-04-09T08:29:49;52.25;;;31.00;;
32535;SDS011;18974;50.838;4.636;2023-04-09T08:32:15;50.88;;;28.67;;
32535;SDS011;18974;50.838;4.636;2023-04-09T08:34:40;45.95;;;27.65;;
32535;SDS011;18974;50.838;4.636;2023-04-09T08:37:06;46.42;;;28.02;;
32535;SDS011;18974;50.838;4.636;2023-04-09T08:39:32;46.20;;;26.85;;
32535;SDS011;18974;50.838;4.636;2023-04-09T08:41:58;45.78;;;27.63;;
32535;SDS011;18974;50.838;4.636;2023-04-09T08:44:27;44.60;;;26.45;;
32535;SDS011;18974;50.838;4.636;2023-04-09T08:46:53;43.08;;;25.95;;
32535;SDS011;18974;50.838;4.636;2023-04-09T08:49:19;43.13;;;25.98;;
32535;SDS011;18974;50.838;4.636;2023-04-09T08:51:46;42.20;;;25.17;;
32535;SDS011;18974;50.838;4.636;2023-04-09T08:54:15;41.17;;;25.50;;
32535;SDS011;18974;50.838;4.636;2023-04-09T08:56:44;41.35;;;26.40;;
32535;SDS011;18974;50.838;4.636;2023-04-09T08:59:13;41.92;;;25.58;;
32535;SDS011;18974;50.838;4.636;2023-04-09T09:01:41;38.75;;;24.55;;
32535;SDS011;18974;50.838;4.636;2023-04-09T09:04:07;42.78;;;24.70;;
32535;SDS011;18974;50.838;4.636;2023-04-09T09:06:35;36.45;;;23.45;;
32535;SDS011;18974;50.838;4.636;2023-04-09T09:11:28;38.70;;;24.65;;
32535;SDS011;18974;50.838;4.636;2023-04-09T09:13:58;38.72;;;24.02;;
32535;SDS011;18974;50.838;4.636;2023-04-09T09:16:35;39.65;;;23.40;;
32535;SDS011;18974;50.838;4.636;2023-04-09T09:19:06;39.65;;;23.58;;
32535;SDS011;18974;50.838;4.636;2023-04-09T09:21:33;34.75;;;22.38;;
32535;SDS011;18974;50.838;4.636;2023-04-09T09:24:00;35.70;;;22.02;;
32535;SDS011;18974;50.838;4.636;2023-04-09T09:26:27;41.10;;;22.27;;
32535;SDS011;18974;50.838;4.636;2023-04-09T09:28:55;37.72;;;22.73;;
32535;SDS011;18974;50.838;4.636;2023-04-09T09:31:22;38.42;;;23.85;;
32535;SDS011;18974;50.838;4.636;2023-04-09T09:33:48;33.17;;;22.52;;
32535;SDS011;18974;50.838;4.636;2023-04-09T09:36:15;37.50;;;23.90;;
32535;SDS011;18974;50.838;4.636;2023-04-09T09:38:55;39.95;;;23.98;;
32535;SDS011;18974;50.838;4.636;2023-04-09T09:41:22;36.55;;;22.75;;
32535;SDS011;18974;50.838;4.636;2023-04-09T09:43:49;35.72;;;23.30;;
32535;SDS011;18974;50.838;4.636;2023-04-09T09:46:15;37.33;;;22.60;;
32535;SDS011;18974;50.838;4.636;2023-04-09T09:48:42;38.42;;;24.23;;
32535;SDS011;18974;50.838;4.636;2023-04-09T09:51:10;39.42;;;23.35;;
32535;SDS011;18974;50.838;4.636;2023-04-09T09:53:37;40.53;;;23.35;;
32535;SDS011;18974;50.838;4.636;2023-04-09T09:56:18;34.47;;;20.95;;
32535;SDS011;18974;50.838;4.636;2023-04-09T09:59:00;34.80;;;21.98;;
32535;SDS011;18974;50.838;4.636;2023-04-09T10:01:37;36.47;;;21.50;;
32535;SDS011;18974;50.838;4.636;2023-04-09T10:04:04;32.92;;;21.73;;
32535;SDS011;18974;50.838;4.636;2023-04-09T10:06:31;35.00;;;23.20;;
32535;SDS011;18974;50.838;4.636;2023-04-09T10:09:03;32.17;;;21.02;;
32535;SDS011;18974;50.838;4.636;2023-04-09T10:11:31;31.85;;;20.33;;
32535;SDS011;18974;50.838;4.636;2023-04-09T10:13:59;33.00;;;21.98;;
32535;SDS011;18974;50.838;4.636;2023-04-09T10:16:25;36.85;;;22.45;;
32535;SDS011;18974;50.838;4.636;2023-04-09T10:18:52;36.58;;;23.17;;
32535;SDS011;18974;50.838;4.636;2023-04-09T10:24:25;29.13;;;19.60;;
32535;SDS011;18974;50.838;4.636;2023-04-09T10:26:52;31.92;;;20.10;;
32535;SDS011;18974;50.838;4.636;2023-04-09T10:29:24;33.72;;;21.42;;
32535;SDS011;18974;50.838;4.636;2023-04-09T10:31:53;29.58;;;20.13;;
32535;SDS011;18974;50.838;4.636;2023-04-09T10:34:27;38.92;;;22.77;;
32535;SDS011;18974;50.838;4.636;2023-04-09T10:36:57;30.30;;;21.05;;
32535;SDS011;18974;50.838;4.636;2023-04-09T10:39:27;33.83;;;20.00;;
32535;SDS011;18974;50.838;4.636;2023-04-09T10:41:55;34.30;;;21.20;;
32535;SDS011;18974;50.838;4.636;2023-04-09T10:44:23;28.38;;;19.35;;
32535;SDS011;18974;50.838;4.636;2023-04-09T10:46:59;32.38;;;20.38;;
32535;SDS011;18974;50.838;4.636;2023-04-09T10:49:27;30.25;;;19.77;;
32535;SDS011;18974;50.838;4.636;2023-04-09T10:52:06;28.92;;;19.58;;
32535;SDS011;18974;50.838;4.636;2023-04-09T10:59:41;30.45;;;19.50;;
32535;SDS011;18974;50.838;4.636;2023-04-09T11:07:26;29.67;;;19.00;;
32535;SDS011;18974;50.838;4.636;2023-04-09T11:09:54;28.67;;;19.10;;
32535;SDS011;18974;50.838;4.636;2023-04-09T11:12:19;29.88;;;18.38;;
32535;SDS011;18974;50.838;4.636;2023-04-09T11:14:45;28.50;;;19.38;;
32535;SDS011;18974;50.838;4.636;2023-04-09T11:17:11;28.70;;;18.75;;
32535;SDS011;18974;50.838;4.636;2023-04-09T11:19:37;27.23;;;18.23;;
32535;SDS011;18974;50.838;4.636;2023-04-09T11:22:03;29.50;;;18.98;;
32535;SDS011;18974;50.838;4.636;2023-04-09T11:24:43;27.45;;;19.30;;
32535;SDS011;18974;50.838;4.636;2023-04-09T11:27:14;28.38;;;18.58;;
32535;SDS011;18974;50.838;4.636;2023-04-09T11:29:43;26.83;;;17.30;;
32535;SDS011;18974;50.838;4.636;2023-04-09T11:32:09;27.48;;;18.40;;
32535;SDS011;18974;50.838;4.636;2023-04-09T11:34:36;28.17;;;17.38;;
32535;SDS011;18974;50.838;4.636;2023-04-09T11:37:02;27.83;;;18.85;;
32535;SDS011;18974;50.838;4.636;2023-04-09T11:39:35;21.38;;;15.27;;
32535;SDS011;18974;50.838;4.636;2023-04-09T11:42:01;24.98;;;15.52;;
32535;SDS011;18974;50.838;4.636;2023-04-09T11:44:26;20.33;;;13.32;;
32535;SDS011;18974;50.838;4.636;2023-04-09T11:46:52;23.45;;;14.52;;
32535;SDS011;18974;50.838;4.636;2023-04-09T11:49:18;19.70;;;13.70;;
32535;SDS011;18974;50.838;4.636;2023-04-09T11:51:44;20.95;;;14.52;;
32535;SDS011;18974;50.838;4.636;2023-04-09T11:54:10;19.50;;;14.48;;
32535;SDS011;18974;50.838;4.636;2023-04-09T11:56:36;19.83;;;13.68;;
32535;SDS011;18974;50.838;4.636;2023-04-09T11:59:02;24.33;;;15.82;;
32535;SDS011;18974;50.838;4.636;2023-04-09T12:01:31;23.27;;;14.75;;
32535;SDS011;18974;50.838;4.636;2023-04-09T12:03:57;20.95;;;14.45;;
32535;SDS011;18974;50.838;4.636;2023-04-09T12:06:24;22.98;;;13.38;;
32535;SDS011;18974;50.838;4.636;2023-04-09T12:08:54;22.17;;;14.70;;
32535;SDS011;18974;50.838;4.636;2023-04-09T12:11:25;24.38;;;16.33;;
32535;SDS011;18974;50.838;4.636;2023-04-09T12:14:01;20.60;;;14.70;;
32535;SDS011;18974;50.838;4.636;2023-04-09T12:16:31;17.77;;;13.00;;
32535;SDS011;18974;50.838;4.636;2023-04-09T12:19:01;21.15;;;14.13;;
32535;SDS011;18974;50.838;4.636;2023-04-09T12:21:43;19.95;;;13.50;;
32535;SDS011;18974;50.838;4.636;2023-04-09T12:24:21;19.40;;;13.50;;
32535;SDS011;18974;50.838;4.636;2023-04-09T12:26:48;20.33;;;13.20;;
32535;SDS011;18974;50.838;4.636;2023-04-09T12:29:15;18.70;;;12.85;;
32535;SDS011;18974;50.838;4.636;2023-04-09T12:31:45;18.08;;;13.07;;
32535;SDS011;18974;50.838;4.636;2023-04-09T12:34:11;19.33;;;12.48;;
32535;SDS011;18974;50.838;4.636;2023-04-09T12:36:37;21.27;;;12.60;;
32535;SDS011;18974;50.838;4.636;2023-04-09T12:39:05;15.88;;;11.50;;
32535;SDS011;18974;50.838;4.636;2023-04-09T12:41:33;20.33;;;13.45;;
32535;SDS011;18974;50.838;4.636;2023-04-09T12:43:58;17.52;;;12.13;;
32535;SDS011;18974;50.838;4.636;2023-04-09T12:46:24;17.17;;;10.93;;
32535;SDS011;18974;50.838;4.636;2023-04-09T12:48:51;14.73;;;10.45;;
32535;SDS011;18974;50.838;4.636;2023-04-09T12:51:16;15.45;;;11.25;;
32535;SDS011;18974;50.838;4.636;2023-04-09T12:53:42;15.93;;;11.63;;
32535;SDS011;18974;50.838;4.636;2023-04-09T12:56:08;19.45;;;13.27;;
32535;SDS011;18974;50.838;4.636;2023-04-09T12:58:34;19.73;;;13.07;;
32535;SDS011;18974;50.838;4.636;2023-04-09T13:01:00;19.15;;;13.25;;
32535;SDS011;18974;50.838;4.636;2023-04-09T13:03:28;14.05;;;10.38;;
32535;SDS011;18974;50.838;4.636;2023-04-09T13:05:53;14.98;;;11.27;;
32535;SDS011;18974;50.838;4.636;2023-04-09T13:08:19;17.27;;;12.35;;
32535;SDS011;18974;50.838;4.636;2023-04-09T13:10:45;12.98;;;9.88;;
32535;SDS011;18974;50.838;4.636;2023-04-09T13:13:10;12.07;;;9.73;;
32535;SDS011;18974;50.838;4.636;2023-04-09T13:15:37;11.25;;;8.52;;
32535;SDS011;18974;50.838;4.636;2023-04-09T13:18:09;17.13;;;10.00;;
32535;SDS011;18974;50.838;4.636;2023-04-09T13:20:35;12.45;;;9.27;;
32535;SDS011;18974;50.838;4.636;2023-04-09T13:23:01;17.45;;;10.75;;
32535;SDS011;18974;50.838;4.636;2023-04-09T13:25:27;12.98;;;9.60;;
32535;SDS011;18974;50.838;4.636;2023-04-09T13:27:53;16.02;;;10.90;;
32535;SDS011;18974;50.838;4.636;2023-04-09T13:30:20;15.70;;;10.98;;
32535;SDS011;18974;50.838;4.636;2023-04-09T13:32:46;14.27;;;10.13;;
32535;SDS011;18974;50.838;4.636;2023-04-09T13:35:11;18.67;;;10.60;;
32535;SDS011;18974;50.838;4.636;2023-04-09T13:37:37;15.10;;;10.50;;
32535;SDS011;18974;50.838;4.636;2023-04-09T13:40:03;14.65;;;10.50;;
32535;SDS011;18974;50.838;4.636;2023-04-09T13:42:29;15.52;;;11.18;;
32535;SDS011;18974;50.838;4.636;2023-04-09T13:44:55;14.43;;;9.32;;
32535;SDS011;18974;50.838;4.636;2023-04-09T13:47:21;11.68;;;8.80;;
32535;SDS011;18974;50.838;4.636;2023-04-09T13:49:47;11.45;;;8.15;;
32535;SDS011;18974;50.838;4.636;2023-04-09T13:52:15;9.77;;;7.40;;
32535;SDS011;18974;50.838;4.636;2023-04-09T13:54:41;11.73;;;8.07;;
32535;SDS011;18974;50.838;4.636;2023-04-09T13:57:07;11.00;;;8.20;;
32535;SDS011;18974;50.838;4.636;2023-04-09T13:59:34;10.73;;;7.55;;
32535;SDS011;18974;50.838;4.636;2023-04-09T14:02:00;11.90;;;7.95;;
32535;SDS011;18974;50.838;4.636;2023-04-09T14:04:25;12.25;;;7.82;;
32535;SDS011;18974;50.838;4.636;2023-04-09T14:06:51;11.23;;;8.25;;
32535;SDS011;18974;50.838;4.636;2023-04-09T14:09:17;11.80;;;8.18;;
32535;SDS011;18974;50.838;4.636;2023-04-09T14:11:42;11.68;;;8.50;;
32535;SDS011;18974;50.838;4.636;2023-04-09T14:14:08;12.57;;;8.30;;
32535;SDS011;18974;50.838;4.636;2023-04-09T14:16:34;11.43;;;7.95;;
32535;SDS011;18974;50.838;4.636;2023-04-09T14:19:00;10.85;;;7.65;;
32535;SDS011;18974;50.838;4.636;2023-04-09T14:21:26;12.73;;;7.90;;
32535;SDS011;18974;50.838;4.636;2023-04-09T14:23:53;11.25;;;7.90;;
32535;SDS011;18974;50.838;4.636;2023-04-09T14:26:19;11.75;;;7.90;;
32535;SDS011;18974;50.838;4.636;2023-04-09T14:28:44;16.25;;;7.82;;
32535;SDS011;18974;50.838;4.636;2023-04-09T14:31:11;11.25;;;7.47;;
32535;SDS011;18974;50.838;4.636;2023-04-09T14:33:38;10.27;;;6.22;;
32535;SDS011;18974;50.838;4.636;2023-04-09T14:36:04;8.98;;;5.57;;
32535;SDS011;18974;50.838;4.636;2023-04-09T14:38:31;8.50;;;5.47;;
32535;SDS011;18974;50.838;4.636;2023-04-09T14:40:57;7.20;;;5.55;;
32535;SDS011;18974;50.838;4.636;2023-04-09T14:43:23;6.93;;;5.18;;
32535;SDS011;18974;50.838;4.636;2023-04-09T14:45:49;10.43;;;6.32;;
32535;SDS011;18974;50.838;4.636;2023-04-09T14:48:15;9.00;;;5.95;;
32535;SDS011;18974;50.838;4.636;2023-04-09T14:50:41;10.98;;;6.25;;